Olean, NY

3:03 PM EST on December 11, 2017 (GMT -0500)
Cattaraugus County-Olean

Weather History for KOLE - November, 2012

Change the Weather History Date:

Thursday, November 8, 2012

  Actual Average (KBFD) Record (KBFD)
Temperature  
Mean Temperature 30 °F -  
Max Temperature 37 °F 45 °F 67 °F (2009)
Min Temperature 23 °F 29 °F 9 °F (1971)
Degree Days  
Heating Degree Days 35    
Moisture  
Dew Point 24 °F    
Average Humidity 78    
Maximum Humidity 100    
Minimum Humidity 52    
Precipitation  
Precipitation 0.00 in - - ()
Sea Level Pressure  
Sea Level Pressure 30.03 in    
Wind  
Wind Speed 5 mph ()    
Max Wind Speed 12 mph    
Max Gust Speed 17 mph    
Visibility 10.0 miles    
Events      
Averages and records for this station are not official NWS values.
T = Trace of Precipitation, MM = Missing Value Source: Averaged Metar Reports

Daily Weather History Graph

Daily Weather History Graph

Search for Another Location

Airport or City:

Trip Planner

Search our weather history database for the weather conditions in past years. The results will help you decide how hot, cold, wet, or windy it might be!

Date:

Astronomy

Nov. 08, 2012 Rise Set
Actual Time 6:55 AM EST 4:58 PM EST
Civil Twilight 6:26 AM EST 5:27 PM EST
Nautical Twilight 5:52 AM EST 6:01 PM EST
Astronomical Twilight 5:19 AM EST 6:34 PM EST
Moon 12:42 AM EST (11/8) 1:44 PM EST (11/8)
Length of Visible Light 11h 01m
Length of Day
10h 02m
Waning Crescent, 33% of the Moon is Illuminated
Nov 8
Waning Crescent
Nov 13
New
Nov 20
First Quarter
Nov 28
Full
Dec 6
Last Quarter

Hourly Weather History & Observations

Time (EST) Temp. Windchill Dew Point Humidity Pressure Visibility Wind Dir Wind Speed Gust Speed Precip Events Conditions
12:15 AM 28.4 °F 22.2 °F 24.8 °F 86% 29.99 in 10.0 mi NNE 5.8 mph - N/A   Overcast
12:35 AM 28.4 °F 23.3 °F 24.8 °F 86% 29.99 in 10.0 mi North 4.6 mph - N/A   Overcast
12:55 AM 28.4 °F 23.3 °F 24.8 °F 86% 29.99 in 10.0 mi North 4.6 mph - N/A   Overcast
1:15 AM 28.4 °F 21.2 °F 24.8 °F 86% 29.97 in 10.0 mi NNE 6.9 mph - N/A   Overcast
1:35 AM 28.4 °F 22.2 °F 24.8 °F 86% 29.99 in 10.0 mi North 5.8 mph - N/A   Overcast
1:55 AM 28.4 °F 22.2 °F 24.8 °F 86% 29.99 in 10.0 mi North 5.8 mph - N/A   Overcast
2:15 AM 28.4 °F 22.2 °F 23.0 °F 80% 29.99 in 10.0 mi North 5.8 mph - N/A   Overcast
2:35 AM 28.4 °F 21.2 °F 23.0 °F 80% 29.99 in 10.0 mi North 6.9 mph - N/A   Overcast
2:55 AM 28.4 °F 21.2 °F 24.8 °F 86% 29.99 in 10.0 mi NNE 6.9 mph - N/A   Overcast
3:15 AM 28.4 °F 20.4 °F 23.0 °F 80% 29.99 in 10.0 mi North 8.1 mph - N/A   Overcast
3:35 AM 28.4 °F 22.2 °F 23.0 °F 80% 29.99 in 10.0 mi North 5.8 mph - N/A   Overcast
3:55 AM 28.4 °F 21.2 °F 23.0 °F 80% 29.99 in 10.0 mi North 6.9 mph - N/A   Overcast
4:15 AM 26.6 °F 19.1 °F 23.0 °F 86% 29.99 in 10.0 mi North 6.9 mph - N/A   Overcast
4:35 AM 26.6 °F 21.2 °F 23.0 °F 86% 29.99 in 10.0 mi North 4.6 mph - N/A   Mostly Cloudy
4:55 AM 26.6 °F 20.0 °F 23.0 °F 86% 29.99 in 10.0 mi NNW 5.8 mph - N/A   Mostly Cloudy
5:15 AM 26.6 °F 22.6 °F 23.0 °F 86% 30.00 in 10.0 mi North 3.5 mph - N/A   Mostly Cloudy
5:35 AM 24.8 °F - 23.0 °F 93% 30.00 in 10.0 mi Calm Calm - N/A   Scattered Clouds
5:55 AM 24.8 °F 20.5 °F 23.0 °F 93% 30.01 in 10.0 mi North 3.5 mph - N/A   Clear
6:15 AM 23.0 °F 18.4 °F 23.0 °F 100% 30.01 in 10.0 mi NNW 3.5 mph - N/A   Clear
6:35 AM 23.0 °F 17.0 °F 23.0 °F 100% 30.01 in 10.0 mi NNW 4.6 mph - N/A   Clear
6:55 AM 23.0 °F 18.4 °F 21.2 °F 93% 30.02 in 10.0 mi North 3.5 mph - N/A   Mostly Cloudy
7:15 AM 23.0 °F 18.4 °F 23.0 °F 100% 30.02 in 10.0 mi NNW 3.5 mph - N/A   Scattered Clouds
7:55 AM 23.0 °F 18.4 °F 23.0 °F 100% 30.04 in 10.0 mi NNW 3.5 mph - N/A   Scattered Clouds
8:15 AM 26.6 °F 20.0 °F 23.0 °F 86% 30.04 in 10.0 mi North 5.8 mph - N/A   Clear
8:35 AM 26.6 °F 20.0 °F 23.0 °F 86% 30.04 in 10.0 mi North 5.8 mph - N/A   Clear
8:55 AM 28.4 °F 20.4 °F 24.8 °F 86% 30.05 in 10.0 mi North 8.1 mph - N/A   Mostly Cloudy
9:15 AM 28.4 °F 20.4 °F 24.8 °F 86% 30.05 in 10.0 mi North 8.1 mph - N/A   Overcast
9:35 AM 30.2 °F 22.6 °F 24.8 °F 80% 30.05 in 10.0 mi North 8.1 mph - N/A   Scattered Clouds
9:55 AM 32.0 °F 25.6 °F 24.8 °F 75% 30.06 in 10.0 mi NNW 6.9 mph - N/A   Scattered Clouds
10:15 AM 32.0 °F 25.6 °F 23.0 °F 69% 30.06 in 10.0 mi NNW 6.9 mph - N/A   Scattered Clouds
10:35 AM 32.0 °F 23.0 °F 23.0 °F 69% 30.07 in 10.0 mi NNW 11.5 mph 17.3 mph N/A   Clear
10:55 AM 32.0 °F 24.2 °F 23.0 °F 69% 30.07 in 10.0 mi NNW 9.2 mph - N/A   Clear
11:35 AM 33.8 °F 27.7 °F 21.2 °F 60% 30.04 in 10.0 mi North 6.9 mph - N/A   Clear
11:55 AM 33.8 °F 26.4 °F 21.2 °F 60% 30.04 in 10.0 mi WNW 9.2 mph - N/A   Clear
12:15 PM 33.8 °F 27.0 °F 21.2 °F 60% 30.03 in 10.0 mi NNW 8.1 mph - N/A   Clear
12:35 PM 35.6 °F 29.2 °F 21.2 °F 56% 30.02 in 10.0 mi NNW 8.1 mph - N/A   Clear
12:55 PM 35.6 °F 31.7 °F 21.2 °F 56% 30.02 in 10.0 mi NNW 4.6 mph - N/A   Clear
1:15 PM 37.4 °F 31.4 °F 21.2 °F 52% 30.02 in 10.0 mi WNW 8.1 mph - N/A   Clear
1:35 PM 37.4 °F 32.1 °F 21.2 °F 52% 30.01 in 10.0 mi NW 6.9 mph - N/A   Clear
1:55 PM 37.4 °F 32.8 °F 21.2 °F 52% 30.01 in 10.0 mi NNW 5.8 mph - N/A   Clear
2:15 PM 37.4 °F 33.8 °F 21.2 °F 52% 30.02 in 10.0 mi NW 4.6 mph - N/A   Clear
2:35 PM 37.4 °F 32.8 °F 21.2 °F 52% 30.01 in 10.0 mi WNW 5.8 mph - N/A   Clear
2:55 PM 37.4 °F 30.3 °F 21.2 °F 52% 30.01 in 10.0 mi NW 10.4 mph - N/A   Clear
3:15 PM 35.6 °F 30.7 °F 21.2 °F 56% 30.02 in 10.0 mi WNW 5.8 mph - N/A   Clear
3:35 PM 35.6 °F 29.9 °F 19.4 °F 52% 30.01 in 10.0 mi WNW 6.9 mph - N/A   Clear
3:55 PM 35.6 °F 28.0 °F 21.2 °F 56% 30.02 in 10.0 mi WNW 10.4 mph - N/A   Clear
4:15 PM 33.8 °F 27.0 °F 21.2 °F 60% 30.02 in 10.0 mi NW 8.1 mph - N/A   Clear
4:35 PM 33.8 °F 27.0 °F 21.2 °F 60% 30.03 in 10.0 mi NW 8.1 mph 16.1 mph N/A   Clear
4:55 PM 32.0 °F 24.2 °F 23.0 °F 69% 30.04 in 10.0 mi NW 9.2 mph - N/A   Clear
5:15 PM 32.0 °F 25.6 °F 23.0 °F 69% 30.04 in 10.0 mi WNW 6.9 mph - N/A   Clear
5:35 PM 32.0 °F 25.6 °F 23.0 °F 69% 30.04 in 10.0 mi WNW 6.9 mph - N/A   Clear
5:55 PM 30.2 °F 25.4 °F 24.8 °F 80% 30.04 in 10.0 mi NW 4.6 mph - N/A   Clear
6:15 PM 30.2 °F 24.3 °F 24.8 °F 80% 30.05 in 10.0 mi WNW 5.8 mph - N/A   Clear
6:35 PM 30.2 °F 25.4 °F 24.8 °F 80% 30.05 in 10.0 mi WNW 4.6 mph - N/A   Clear
6:55 PM 30.2 °F 26.7 °F 24.8 °F 80% 30.05 in 10.0 mi West 3.5 mph - N/A   Clear
7:15 PM 30.2 °F 25.4 °F 24.8 °F 80% 30.05 in 10.0 mi West 4.6 mph - N/A   Clear
7:35 PM 28.4 °F - 24.8 °F 86% 30.06 in 10.0 mi Calm Calm - N/A   Clear
7:55 PM 30.2 °F - 24.8 °F 80% 30.05 in 10.0 mi Calm Calm - N/A   Clear
8:15 PM 28.4 °F - 24.8 °F 86% 30.05 in 10.0 mi Calm Calm - N/A   Clear
8:35 PM 28.4 °F - 24.8 °F 86% 30.05 in 10.0 mi Calm Calm - N/A   Clear
8:55 PM 28.4 °F - 24.8 °F 86% 30.05 in 10.0 mi Calm Calm - N/A   Clear
9:15 PM 28.4 °F - 26.6 °F 93% 30.05 in 10.0 mi Calm Calm - N/A   Scattered Clouds
9:35 PM 30.2 °F - 26.6 °F 86% 30.05 in 10.0 mi Calm Calm - N/A   Mostly Cloudy
9:55 PM 30.2 °F - 26.6 °F 86% 30.04 in 10.0 mi Calm Calm - N/A   Scattered Clouds
10:15 PM 28.4 °F - 26.6 °F 93% 30.04 in 10.0 mi Calm Calm - N/A   Clear
10:35 PM 28.4 °F - 26.6 °F 93% 30.04 in 10.0 mi Calm Calm - N/A   Clear
10:55 PM 28.4 °F - 26.6 °F 93% 30.04 in 10.0 mi Calm Calm - N/A   Scattered Clouds
11:15 PM 28.4 °F - 26.6 °F 93% 30.04 in 10.0 mi Calm Calm - N/A   Scattered Clouds
11:35 PM 28.4 °F 24.6 °F 26.6 °F 93% 30.04 in 10.0 mi WNW 3.5 mph - N/A   Scattered Clouds
11:55 PM 28.4 °F - 26.6 °F 93% 30.04 in 10.0 mi Calm Calm - N/A   Clear